Time;durP1;ratioP1;P1;durP2;ratioP2;P2;SDS_P1;SDS_P2;PMS_P1;PMS_P2;Temp;Humidity;BMP_temperature;BMP_pressure;BME280_temperature;BME280_humidity;BME280_pressure;Samples;Min_cycle;Max_cycle;Signal;HPM_P1;HPM_P2
2022/05/19 00:01:01;;;;;;;;;;;;;;;;;;5058807;28;19951;-24
2022/05/19 00:03:25;;;;;;;;;;;;;;;;;;5059403;28;20011;-24
2022/05/19 00:05:52;;;;;;;;;;;;;;;;;;5060089;28;20000;-24
2022/05/19 00:08:19;;;;;;;;;;;;;;;;;;5058627;28;19955;-23
2022/05/19 00:10:46;;;;;;;;;;;;;;;;;;5059019;28;20291;-24
2022/05/19 00:13:13;;;;;;;;;;;;;;;;;;5059609;28;19917;-23
2022/05/19 00:15:39;;;;;;;;;;;;;;;;;;5059655;28;20314;-24
2022/05/19 00:18:06;;;;;;;;;;;;;;;;;;5058531;28;19909;-24
2022/05/19 00:20:32;;;;;;;;;;;;;;;;;;5059441;28;19917;-24
2022/05/19 00:22:59;;;;;;;;;;;;;;;;;;5058246;28;19944;-24
2022/05/19 00:25:25;;;;;;;;;;;;;;;;;;5058447;28;19913;-23
2022/05/19 00:27:52;;;;;;;;;;;;;;;;;;5058234;28;19909;-24
2022/05/19 00:30:19;;;;;;;;;;;;;;;;;;5059332;28;20287;-24
2022/05/19 00:32:45;;;;;;;;;;;;;;;;;;5058632;28;20302;-23
2022/05/19 00:35:12;;;;;;;;;;;;;;;;;;5059224;28;19908;-24
2022/05/19 00:37:38;;;;;;;;;;;;;;;;;;5059158;28;19928;-24
2022/05/19 00:40:05;;;;;;;;;;;;;;;;;;5059202;28;19909;-24
2022/05/19 00:42:44;;;;;;;;;;;;;;;;;;5058719;28;19916;-26
2022/05/19 00:45:11;;;;;;;;;;;;;;;;;;5058877;28;20398;-26
2022/05/19 00:47:38;;;;;;;;;;;;;;;;;;5059078;28;19917;-26
2022/05/19 00:50:05;;;;;;;;;;;;;;;;;;5041441;28;19913;-27
2022/05/19 00:52:31;;;;;;;;;;;;;;;;;;5059186;28;19917;-22
2022/05/19 00:54:59;;;;;;;;;;;;;;;;;;5059312;28;19939;-23
2022/05/19 00:57:26;;;;;;;;;;;;;;;;;;5058702;28;20227;-23
2022/05/19 00:59:53;;;;;;;;;;;;;;;;;;5059007;28;19923;-23
2022/05/19 01:02:20;;;;;;;;;;;;;;;;;;5058084;28;19917;-23
2022/05/19 01:04:47;;;;;;;;;;;;;;;;;;5041008;28;19913;-23
2022/05/19 01:07:14;;;;;;;;;;;;;;;;;;5058632;28;20324;-23
2022/05/19 01:09:41;;;;;;;;;;;;;;;;;;5058629;28;19923;-24
2022/05/19 01:12:09;;;;;;;;;;;;;;;;;;5058243;28;19935;-23
2022/05/19 01:14:36;;;;;;;;;;;;;;;;;;5058459;28;19970;-23
2022/05/19 01:17:06;;;;;;;;;;;;;;;;;;5058466;28;19909;-23
2022/05/19 01:19:33;;;;;;;;;;;;;;;;;;5040903;28;19976;-23
2022/05/19 01:22:01;;;;;;;;;;;;;;;;;;5057812;28;19994;-23
2022/05/19 01:24:27;;;;;;;;;;;;;;;;;;5058562;28;19923;-23
2022/05/19 01:26:55;;;;;;;;;;;;;;;;;;5058102;28;19996;-23
2022/05/19 01:29:21;;;;;;;;;;;;;;;;;;5058391;28;20339;-23
2022/05/19 01:31:48;;;;;;;;;;;;;;;;;;5040361;28;20331;-23
2022/05/19 01:34:14;;;;;;;;;;;;;;;;;;5058415;28;19944;-23
2022/05/19 01:36:41;;;;;;;;;;;;;;;;;;5058262;28;19904;-23
2022/05/19 01:39:08;;;;;;;;;;;;;;;;;;5058097;28;19948;-23
2022/05/19 01:41:35;;;;;;;;;;;;;;;;;;5040317;28;19912;-23
2022/05/19 01:44:01;;;;;;;;;;;;;;;;;;5040518;28;20355;-23
2022/05/19 01:46:28;;;;;;;;;;;;;;;;;;5058585;28;20022;-23
2022/05/19 01:48:56;;;;;;;;;;;;;;;;;;5039941;28;19912;-23
2022/05/19 01:51:23;;;;;;;;;;;;;;;;;;5057650;28;20370;-23
2022/05/19 01:53:50;;;;;;;;;;;;;;;;;;5039710;28;19971;-23
2022/05/19 01:56:17;;;;;;;;;;;;;;;;;;5057550;28;19963;-23
2022/05/19 01:58:43;;;;;;;;;;;;;;;;;;5039849;28;19961;-23
2022/05/19 02:01:10;;;;;;;;;;;;;;;;;;5039720;28;19975;-23
2022/05/19 02:03:37;;;;;;;;;;;;;;;;;;5057531;28;19916;-23
2022/05/19 02:06:04;;;;;;;;;;;;;;;;;;5057921;28;19995;-23
2022/05/19 02:08:30;;;;;;;;;;;;;;;;;;5039897;28;19923;-23
2022/05/19 02:10:57;;;;;;;;;;;;;;;;;;5057523;28;19909;-23
2022/05/19 02:13:24;;;;;;;;;;;;;;;;;;5057256;28;19912;-23
2022/05/19 02:15:51;;;;;;;;;;;;;;;;;;5057741;28;20235;-23
2022/05/19 02:18:18;;;;;;;;;;;;;;;;;;5040262;28;19908;-23
2022/05/19 02:20:44;;;;;;;;;;;;;;;;;;5057297;28;19917;-23
2022/05/19 02:23:11;;;;;;;;;;;;;;;;;;5039687;28;19913;-23
2022/05/19 02:25:39;;;;;;;;;;;;;;;;;;5057205;28;19913;-23
2022/05/19 02:28:05;;;;;;;;;;;;;;;;;;5057188;28;20016;-23
2022/05/19 02:30:32;;;;;;;;;;;;;;;;;;5057430;28;20007;-23
2022/05/19 02:32:59;;;;;;;;;;;;;;;;;;5056729;28;19913;-23
2022/05/19 02:35:26;;;;;;;;;;;;;;;;;;5056960;28;19913;-23
2022/05/19 02:37:53;;;;;;;;;;;;;;;;;;5057094;28;19912;-23
2022/05/19 02:40:20;;;;;;;;;;;;;;;;;;5039506;28;19991;-23
2022/05/19 02:42:46;;;;;;;;;;;;;;;;;;5056352;28;19923;-23
2022/05/19 02:45:13;;;;;;;;;;;;;;;;;;5048291;28;20003;-23
2022/05/19 02:47:40;;;;;;;;;;;;;;;;;;5057179;28;19923;-23
2022/05/19 02:50:07;;;;;;;;;;;;;;;;;;5057109;28;19920;-23
2022/05/19 02:52:34;;;;;;;;;;;;;;;;;;5056520;28;19944;-23
2022/05/19 02:55:01;;;;;;;;;;;;;;;;;;5056786;28;19959;-23
2022/05/19 02:57:27;;;;;;;;;;;;;;;;;;5056797;28;19949;-25
2022/05/19 02:59:54;;;;;;;;;;;;;;;;;;5056921;28;19913;-25
2022/05/19 03:02:21;;;;;;;;;;;;;;;;;;5056699;28;19935;-25
2022/05/19 03:04:48;;;;;;;;;;;;;;;;;;5057020;28;19914;-24
2022/05/19 03:07:15;;;;;;;;;;;;;;;;;;5056329;28;19913;-23
2022/05/19 03:09:42;;;;;;;;;;;;;;;;;;5057272;28;19995;-23
2022/05/19 03:12:09;;;;;;;;;;;;;;;;;;5056784;28;19931;-23
2022/05/19 03:14:36;;;;;;;;;;;;;;;;;;5055518;28;19920;-24
2022/05/19 03:17:03;;;;;;;;;;;;;;;;;;5055680;28;19912;-24
2022/05/19 03:19:30;;;;;;;;;;;;;;;;;;5056037;28;19913;-23
2022/05/19 03:21:57;;;;;;;;;;;;;;;;;;5056515;28;19974;-23
2022/05/19 03:24:24;;;;;;;;;;;;;;;;;;5055485;28;19920;-23
2022/05/19 03:26:51;;;;;;;;;;;;;;;;;;5055331;28;20263;-24
2022/05/19 03:29:18;;;;;;;;;;;;;;;;;;5055585;28;19909;-23
2022/05/19 03:31:45;;;;;;;;;;;;;;;;;;5056273;28;20093;-23
2022/05/19 03:34:12;;;;;;;;;;;;;;;;;;5055590;28;19919;-24
2022/05/19 03:36:38;;;;;;;;;;;;;;;;;;5055331;28;19951;-23
2022/05/19 03:39:05;;;;;;;;;;;;;;;;;;5055115;28;20331;-23
2022/05/19 03:41:32;;;;;;;;;;;;;;;;;;5056927;28;19917;-23
2022/05/19 03:43:58;;;;;;;;;;;;;;;;;;5055310;28;19913;-24
2022/05/19 03:46:25;;;;;;;;;;;;;;;;;;5056507;28;19916;-23
2022/05/19 03:48:53;;;;;;;;;;;;;;;;;;5038170;28;19912;-29
2022/05/19 03:51:21;;;;;;;;;;;;;;;;;;5055889;28;19912;-23
2022/05/19 03:53:48;;;;;;;;;;;;;;;;;;5037789;28;19912;-24
2022/05/19 03:56:15;;;;;;;;;;;;;;;;;;5055661;28;20018;-24
2022/05/19 03:58:42;;;;;;;;;;;;;;;;;;5055275;28;19923;-25
2022/05/19 04:03:45;;;;;;;;;;;;;;;;;;5211506;22;19943;-25
2022/05/19 04:06:12;;;;;;;;;;;;;;;;;;5055616;28;19917;-25
2022/05/19 04:08:40;;;;;;;;;;;;;;;;;;5059089;28;19913;-26
2022/05/19 04:11:07;;;;;;;;;;;;;;;;;;5041517;28;20335;-26
2022/05/19 04:13:34;;;;;;;;;;;;;;;;;;5058782;28;19912;-26
2022/05/19 04:16:02;;;;;;;;;;;;;;;;;;5058904;28;19912;-25
2022/05/19 04:18:30;;;;;;;;;;;;;;;;;;5041024;28;20322;-26
2022/05/19 04:20:57;;;;;;;;;;;;;;;;;;5059173;28;19913;-25
2022/05/19 04:23:24;;;;;;;;;;;;;;;;;;5058932;28;19974;-25
2022/05/19 04:25:51;;;;;;;;;;;;;;;;;;5058700;28;20008;-25
2022/05/19 04:28:18;;;;;;;;;;;;;;;;;;5058571;28;19939;-25
2022/05/19 04:30:45;;;;;;;;;;;;;;;;;;5040873;28;19908;-25
2022/05/19 04:33:13;;;;;;;;;;;;;;;;;;5058600;28;19916;-25
2022/05/19 04:35:40;;;;;;;;;;;;;;;;;;5040718;28;20004;-25
2022/05/19 04:38:07;;;;;;;;;;;;;;;;;;5058870;28;19932;-25
2022/05/19 04:40:35;;;;;;;;;;;;;;;;;;5058145;28;19935;-25
2022/05/19 04:43:02;;;;;;;;;;;;;;;;;;5058362;28;19912;-25
2022/05/19 04:45:28;;;;;;;;;;;;;;;;;;5040992;28;19912;-26
2022/05/19 04:47:55;;;;;;;;;;;;;;;;;;5057927;28;19919;-26
2022/05/19 04:50:21;;;;;;;;;;;;;;;;;;5056382;28;19916;-26
2022/05/19 04:52:47;;;;;;;;;;;;;;;;;;5056144;28;20240;-27
2022/05/19 04:55:14;;;;;;;;;;;;;;;;;;5056768;28;19908;-25
2022/05/19 04:57:41;;;;;;;;;;;;;;;;;;5039864;28;19920;-26
2022/05/19 05:00:08;;;;;;;;;;;;;;;;;;5058617;28;19909;-25
2022/05/19 05:02:39;;;;;;;;;;;;;;;;;;5057517;28;19921;-25
2022/05/19 05:05:06;;;;;;;;;;;;;;;;;;5058436;28;19909;-25
2022/05/19 05:07:34;;;;;;;;;;;;;;;;;;5040411;28;20309;-25
2022/05/19 05:10:01;;;;;;;;;;;;;;;;;;5040386;28;20000;-25
2022/05/19 05:12:29;;;;;;;;;;;;;;;;;;5058567;28;19904;-25
2022/05/19 05:14:57;;;;;;;;;;;;;;;;;;5058510;28;19913;-25
2022/05/19 05:17:24;;;;;;;;;;;;;;;;;;5057194;28;20262;-25
2022/05/19 05:19:52;;;;;;;;;;;;;;;;;;5040433;28;20267;-25
2022/05/19 05:22:19;;;;;;;;;;;;;;;;;;5058333;28;19913;-25
2022/05/19 05:24:46;;;;;;;;;;;;;;;;;;5057989;28;19971;-31
2022/05/19 05:27:13;;;;;;;;;;;;;;;;;;5057799;28;19908;-25
2022/05/19 05:29:41;;;;;;;;;;;;;;;;;;5058107;28;19913;-25
2022/05/19 05:32:08;;;;;;;;;;;;;;;;;;5057704;28;20414;-26
2022/05/19 05:34:36;;;;;;;;;;;;;;;;;;5058735;28;20324;-26
2022/05/19 05:37:06;;;;;;;;;;;;;;;;;;5040363;28;19913;-26
2022/05/19 05:39:35;;;;;;;;;;;;;;;;;;5058830;28;19913;-26
2022/05/19 05:42:04;;;;;;;;;;;;;;;;;;5057971;28;19917;-25
2022/05/19 05:44:31;;;;;;;;;;;;;;;;;;5040598;28;19920;-26
2022/05/19 05:46:58;;;;;;;;;;;;;;;;;;5040152;28;19952;-26
2022/05/19 05:49:26;;;;;;;;;;;;;;;;;;5040353;28;19917;-26
2022/05/19 05:51:55;;;;;;;;;;;;;;;;;;5057135;28;19967;-26
2022/05/19 05:54:22;;;;;;;;;;;;;;;;;;5041287;28;19939;-26
2022/05/19 05:56:50;;;;;;;;;;;;;;;;;;5039893;28;20313;-26
2022/05/19 05:59:18;;;;;;;;;;;;;;;;;;5057753;28;20350;-26
2022/05/19 06:01:46;;;;;;;;;;;;;;;;;;5056914;28;19917;-25
2022/05/19 06:04:14;;;;;;;;;;;;;;;;;;5056824;28;19941;-25
2022/05/19 06:06:47;;;;;;;;;;;;;;;;;;5057916;28;19915;-25
2022/05/19 06:09:15;;;;;;;;;;;;;;;;;;5040210;28;19978;-26
2022/05/19 06:11:49;;;;;;;;;;;;;;;;;;5056595;28;19913;-26
2022/05/19 06:14:18;;;;;;;;;;;;;;;;;;5038970;28;19908;-26
2022/05/19 06:17:07;;;;;;;;;;;;;;;;;;5039332;28;19958;-26
2022/05/19 06:19:35;;;;;;;;;;;;;;;;;;5057300;28;19937;-26
2022/05/19 06:22:02;;;;;;;;;;;;;;;;;;5038613;28;20351;-26
2022/05/19 06:24:34;;;;;;;;;;;;;;;;;;5039323;28;20274;-26
2022/05/19 06:27:03;;;;;;;;;;;;;;;;;;5039371;28;20327;-26
2022/05/19 06:29:32;;;;;;;;;;;;;;;;;;5055981;28;19909;-26
2022/05/19 06:32:05;;;;;;;;;;;;;;;;;;5038890;28;19913;-26
2022/05/19 06:34:39;;;;;;;;;;;;;;;;;;5038638;28;19976;-25
2022/05/19 06:37:11;;;;;;;;;;;;;;;;;;5038888;28;19936;-26
2022/05/19 06:39:44;;;;;;;;;;;;;;;;;;5038869;28;19924;-26
2022/05/19 06:48:04;;;;;;;;;;;;;;;;;;5057777;28;19939;-26
2022/05/19 06:50:53;;;;;;;;;;;;;;;;;;5038665;28;19924;-26
2022/05/19 06:56:21;;;;;;;;;;;;;;;;;;5057740;28;20004;-26
2022/05/19 07:01:41;;;;;;;;;;;;;;;;;;5057449;28;20019;-26
2022/05/19 07:04:16;;;;;;;;;;;;;;;;;;5036694;28;19921;-26
2022/05/19 07:09:32;;;;;;;;;;;;;;;;;;4664773;26;20305;-25
2022/05/19 07:12:04;;;;;;;;;;;;;;;;;;5057652;28;19920;-25
2022/05/19 07:14:44;;;;;;;;;;;;;;;;;;5040186;28;20270;-24
2022/05/19 07:22:46;;;;;;;;;;;;;;;;;;5054506;28;20022;-26
2022/05/19 07:25:13;;;;;;;;;;;;;;;;;;5036043;28;20028;-26
2022/05/19 07:27:39;;;;;;;;;;;;;;;;;;5053586;28;20015;-26
2022/05/19 07:30:05;;;;;;;;;;;;;;;;;;5053964;28;20243;-27
2022/05/19 07:32:31;;;;;;;;;;;;;;;;;;5054250;28;19920;-27
2022/05/19 07:34:58;;;;;;;;;;;;;;;;;;5036014;28;19921;-27
2022/05/19 07:37:29;;;;;;;;;;;;;;;;;;5053383;28;19909;-25
2022/05/19 07:39:56;;;;;;;;;;;;;;;;;;5053373;28;19913;-26
2022/05/19 07:42:26;;;;;;;;;;;;;;;;;;5040141;28;20027;-25
2022/05/19 07:44:55;;;;;;;;;;;;;;;;;;5062020;28;19913;-24
2022/05/19 07:47:40;;;;;;;;;;;;;;;;;;5060178;28;19993;-24
2022/05/19 07:50:10;;;;;;;;;;;;;;;;;;5042405;28;19919;-24
2022/05/19 07:52:45;;;;;;;;;;;;;;;;;;5060906;28;20247;-24
2022/05/19 07:55:32;;;;;;;;;;;;;;;;;;5060830;28;20256;-25
2022/05/19 08:03:43;;;;;;;;;;;;;;;;;;5057647;28;19920;-26
2022/05/19 08:06:10;;;;;;;;;;;;;;;;;;5057045;28;20272;-26
2022/05/19 08:08:36;;;;;;;;;;;;;;;;;;5056759;28;19932;-27
2022/05/19 08:11:03;;;;;;;;;;;;;;;;;;5039325;28;19983;-26
2022/05/19 08:16:15;;;;;;;;;;;;;;;;;;5056809;28;20358;-26
2022/05/19 08:18:42;;;;;;;;;;;;;;;;;;5056776;28;20243;-26
2022/05/19 08:21:09;;;;;;;;;;;;;;;;;;5056311;28;19917;-26
2022/05/19 08:23:35;;;;;;;;;;;;;;;;;;5039031;28;20288;-26
2022/05/19 08:26:13;;;;;;;;;;;;;;;;;;5039202;28;19955;-26
2022/05/19 08:28:49;;;;;;;;;;;;;;;;;;5056702;28;19913;-26
2022/05/19 08:45:32;;;;;;;;;;;;;;;;;;5055804;28;19919;-26
2022/05/19 08:48:07;;;;;;;;;;;;;;;;;;5055424;28;20296;-26
2022/05/19 08:50:40;;;;;;;;;;;;;;;;;;5055389;28;20003;-26
2022/05/19 08:53:07;;;;;;;;;;;;;;;;;;5054574;28;20321;-26
2022/05/19 08:55:34;;;;;;;;;;;;;;;;;;5055294;28;19916;-27
2022/05/19 08:58:05;;;;;;;;;;;;;;;;;;5037688;28;19913;-26
2022/05/19 09:00:35;;;;;;;;;;;;;;;;;;5037549;28;19913;-26
2022/05/19 09:03:09;;;;;;;;;;;;;;;;;;5037743;28;19921;-27
2022/05/19 09:05:42;;;;;;;;;;;;;;;;;;5055238;28;20025;-27
2022/05/19 09:08:21;;;;;;;;;;;;;;;;;;5055239;28;19975;-26
2022/05/19 09:10:51;;;;;;;;;;;;;;;;;;5054892;28;19919;-26
2022/05/19 09:16:11;;;;;;;;;;;;;;;;;;5055033;28;19923;-26
2022/05/19 09:18:38;;;;;;;;;;;;;;;;;;5037142;28;20000;-26
2022/05/19 09:21:42;;;;;;;;;;;;;;;;;;5055292;28;20275;-26
2022/05/19 09:49:25;;;;;;;;;;;;;;;;;;5038350;28;19940;-26
2022/05/19 09:51:52;;;;;;;;;;;;;;;;;;5041210;28;19913;-25
2022/05/19 09:57:13;;;;;;;;;;;;;;;;;;5037496;28;19976;-25
2022/05/19 09:59:40;;;;;;;;;;;;;;;;;;5041022;28;19913;-25
2022/05/19 10:04:55;;;;;;;;;;;;;;;;;;5036755;28;19939;-25
2022/05/19 10:19:05;;;;;;;;;;;;;;;;;;5037973;28;19959;-25
2022/05/19 10:24:31;;;;;;;;;;;;;;;;;;5035446;28;19924;-26
2022/05/19 10:32:45;;;;;;;;;;;;;;;;;;5035969;28;20071;-26
2022/05/19 10:35:13;;;;;;;;;;;;;;;;;;5036323;28;19988;-26
2022/05/19 10:43:27;;;;;;;;;;;;;;;;;;5036037;28;19943;-25
2022/05/19 10:45:54;;;;;;;;;;;;;;;;;;5018979;28;19913;-25
2022/05/19 10:48:24;;;;;;;;;;;;;;;;;;5035885;28;19917;-25
2022/05/19 10:51:00;;;;;;;;;;;;;;;;;;5037448;28;19913;-25
2022/05/19 10:53:32;;;;;;;;;;;;;;;;;;5034820;28;20237;-25
2022/05/19 10:56:02;;;;;;;;;;;;;;;;;;5016846;28;20259;-25
2022/05/19 10:58:33;;;;;;;;;;;;;;;;;;5034523;28;19913;-26
2022/05/19 11:01:06;;;;;;;;;;;;;;;;;;5016293;28;19909;-26
2022/05/19 11:03:46;;;;;;;;;;;;;;;;;;5034694;28;19917;-25
2022/05/19 11:06:16;;;;;;;;;;;;;;;;;;5035195;28;19920;-25
2022/05/19 11:08:49;;;;;;;;;;;;;;;;;;5016108;28;20344;-25
2022/05/19 11:11:19;;;;;;;;;;;;;;;;;;5017681;28;19940;-25
2022/05/19 11:28:03;;;;;;;;;;;;;;;;;;5495619;22;19967;-25
2022/05/19 11:30:37;;;;;;;;;;;;;;;;;;5044050;28;19921;-25
2022/05/19 11:33:15;;;;;;;;;;;;;;;;;;5063235;28;19912;-25
2022/05/19 11:35:45;;;;;;;;;;;;;;;;;;5062471;28;20307;-24
2022/05/19 11:38:15;;;;;;;;;;;;;;;;;;5043689;28;19959;-24
2022/05/19 11:43:41;;;;;;;;;;;;;;;;;;5061894;28;19936;-24
2022/05/19 11:46:13;;;;;;;;;;;;;;;;;;5061422;28;19917;-25
2022/05/19 11:57:09;;;;;;;;;;;;;;;;;;5060867;28;19919;-25
2022/05/19 11:59:47;;;;;;;;;;;;;;;;;;5060792;28;19921;-25
2022/05/19 12:05:10;;;;;;;;;;;;;;;;;;5061188;28;20288;-25
2022/05/19 12:07:43;;;;;;;;;;;;;;;;;;5060736;28;20263;-25
2022/05/19 12:10:15;;;;;;;;;;;;;;;;;;5044155;28;19940;-25
2022/05/19 12:12:44;;;;;;;;;;;;;;;;;;5060496;28;20010;-25
2022/05/19 12:15:11;;;;;;;;;;;;;;;;;;5058395;28;20212;-26
2022/05/19 12:17:39;;;;;;;;;;;;;;;;;;5057281;28;20010;-26
2022/05/19 12:20:10;;;;;;;;;;;;;;;;;;5059618;28;19913;-25
2022/05/19 12:25:43;;;;;;;;;;;;;;;;;;5060773;28;19940;-25
2022/05/19 12:28:11;;;;;;;;;;;;;;;;;;5041070;28;19925;-25
2022/05/19 12:33:30;;;;;;;;;;;;;;;;;;5061205;28;20274;-25
2022/05/19 12:36:09;;;;;;;;;;;;;;;;;;5042025;28;20005;-25
2022/05/19 12:41:33;;;;;;;;;;;;;;;;;;5060206;28;19936;-25
2022/05/19 12:44:05;;;;;;;;;;;;;;;;;;5060542;28;19924;-25
2022/05/19 12:46:39;;;;;;;;;;;;;;;;;;5060990;28;19913;-25
2022/05/19 12:52:18;;;;;;;;;;;;;;;;;;5061164;28;20035;-26
2022/05/19 12:54:50;;;;;;;;;;;;;;;;;;5041463;28;19913;-25
2022/05/19 12:57:20;;;;;;;;;;;;;;;;;;5041964;28;19909;-26
2022/05/19 12:59:51;;;;;;;;;;;;;;;;;;5041116;28;20240;-25
2022/05/19 13:08:01;;;;;;;;;;;;;;;;;;5059702;28;20415;-26
2022/05/19 13:13:21;;;;;;;;;;;;;;;;;;5060659;28;19962;-25
2022/05/19 13:15:50;;;;;;;;;;;;;;;;;;5059641;28;20003;-25
2022/05/19 13:18:23;;;;;;;;;;;;;;;;;;5060243;28;20500;-26
2022/05/19 13:20:56;;;;;;;;;;;;;;;;;;5041605;28;20262;-26
2022/05/19 13:23:24;;;;;;;;;;;;;;;;;;5058593;28;19908;-26
2022/05/19 13:25:51;;;;;;;;;;;;;;;;;;5041314;28;19913;-26
2022/05/19 13:31:03;;;;;;;;;;;;;;;;;;5059760;28;19919;-26
2022/05/19 13:33:36;;;;;;;;;;;;;;;;;;5058152;28;20313;-24
2022/05/19 13:36:12;;;;;;;;;;;;;;;;;;5040937;28;19978;-23
2022/05/19 13:38:41;;;;;;;;;;;;;;;;;;5041009;28;19939;-24
2022/05/19 13:41:09;;;;;;;;;;;;;;;;;;5041457;28;20259;-23
2022/05/19 13:43:37;;;;;;;;;;;;;;;;;;5058935;28;19947;-24
2022/05/19 13:46:16;;;;;;;;;;;;;;;;;;5058656;28;20237;-24
2022/05/19 13:49:06;;;;;;;;;;;;;;;;;;5058252;28;20278;-24
2022/05/19 13:51:38;;;;;;;;;;;;;;;;;;5040125;28;19909;-24
2022/05/19 13:54:07;;;;;;;;;;;;;;;;;;5057979;28;19919;-24
2022/05/19 13:56:36;;;;;;;;;;;;;;;;;;5057819;28;19909;-23
2022/05/19 13:59:04;;;;;;;;;;;;;;;;;;5057651;28;19995;-24
2022/05/19 14:01:33;;;;;;;;;;;;;;;;;;5057469;28;20224;-24
2022/05/19 14:04:03;;;;;;;;;;;;;;;;;;5057706;28;20252;-24
2022/05/19 14:06:31;;;;;;;;;;;;;;;;;;5057242;28;19912;-24
2022/05/19 14:08:58;;;;;;;;;;;;;;;;;;5057539;28;19916;-24
2022/05/19 14:11:26;;;;;;;;;;;;;;;;;;5057134;28;20316;-24
2022/05/19 14:13:53;;;;;;;;;;;;;;;;;;5058499;28;19917;-24
2022/05/19 14:16:25;;;;;;;;;;;;;;;;;;5039571;28;19913;-24
2022/05/19 14:18:53;;;;;;;;;;;;;;;;;;5057013;28;20317;-24
2022/05/19 14:21:20;;;;;;;;;;;;;;;;;;5057172;28;20365;-24
2022/05/19 14:23:47;;;;;;;;;;;;;;;;;;5058026;28;19916;-24
2022/05/19 14:26:15;;;;;;;;;;;;;;;;;;5039696;28;19913;-24
2022/05/19 14:28:45;;;;;;;;;;;;;;;;;;5057783;28;19982;-24
2022/05/19 14:31:13;;;;;;;;;;;;;;;;;;5039564;28;19932;-24
2022/05/19 14:33:41;;;;;;;;;;;;;;;;;;5056801;28;20259;-24
2022/05/19 14:36:09;;;;;;;;;;;;;;;;;;5056665;28;19912;-24
2022/05/19 14:38:36;;;;;;;;;;;;;;;;;;5057002;28;19909;-24
2022/05/19 14:43:49;;;;;;;;;;;;;;;;;;5057260;28;19920;-24
2022/05/19 14:46:16;;;;;;;;;;;;;;;;;;5056796;28;19912;-24
2022/05/19 14:48:44;;;;;;;;;;;;;;;;;;5058147;28;19983;-24
2022/05/19 14:51:12;;;;;;;;;;;;;;;;;;5039077;28;19913;-25
2022/05/19 14:53:43;;;;;;;;;;;;;;;;;;5057206;28;19923;-24
2022/05/19 14:56:10;;;;;;;;;;;;;;;;;;5056399;28;20332;-24
2022/05/19 14:58:38;;;;;;;;;;;;;;;;;;5057056;28;19917;-24
2022/05/19 15:01:06;;;;;;;;;;;;;;;;;;5039165;28;20259;-24
2022/05/19 15:03:36;;;;;;;;;;;;;;;;;;5057031;28;19913;-24
2022/05/19 15:06:03;;;;;;;;;;;;;;;;;;5057408;28;19923;-25
2022/05/19 15:08:30;;;;;;;;;;;;;;;;;;5039186;28;19908;-25
2022/05/19 15:10:57;;;;;;;;;;;;;;;;;;5055897;28;19924;-24
2022/05/19 15:13:25;;;;;;;;;;;;;;;;;;5056235;28;19920;-24
2022/05/19 15:15:53;;;;;;;;;;;;;;;;;;5056096;28;19963;-24
2022/05/19 15:18:20;;;;;;;;;;;;;;;;;;5055958;28;19920;-24
2022/05/19 15:20:47;;;;;;;;;;;;;;;;;;5056595;28;20343;-24
2022/05/19 15:23:13;;;;;;;;;;;;;;;;;;5038613;28;19975;-24
2022/05/19 15:25:41;;;;;;;;;;;;;;;;;;5056037;28;19916;-24
2022/05/19 15:28:08;;;;;;;;;;;;;;;;;;5038057;28;19991;-24
2022/05/19 15:30:37;;;;;;;;;;;;;;;;;;5055706;28;19987;-24
2022/05/19 15:33:06;;;;;;;;;;;;;;;;;;5038077;28;19909;-24
2022/05/19 15:35:35;;;;;;;;;;;;;;;;;;5056227;28;19924;-25
2022/05/19 15:38:02;;;;;;;;;;;;;;;;;;5038198;28;19979;-25
2022/05/19 15:40:30;;;;;;;;;;;;;;;;;;5056952;28;19982;-25
2022/05/19 15:42:57;;;;;;;;;;;;;;;;;;5056443;28;19939;-25
2022/05/19 15:45:24;;;;;;;;;;;;;;;;;;5056483;28;20066;-25
2022/05/19 15:47:51;;;;;;;;;;;;;;;;;;5056404;28;20365;-25
2022/05/19 15:50:17;;;;;;;;;;;;;;;;;;5056095;28;20240;-25
2022/05/19 15:52:46;;;;;;;;;;;;;;;;;;5055820;28;19913;-25
2022/05/19 15:55:14;;;;;;;;;;;;;;;;;;5056192;28;20327;-25
2022/05/19 15:57:41;;;;;;;;;;;;;;;;;;5056480;28;19966;-25
2022/05/19 16:00:08;;;;;;;;;;;;;;;;;;5038906;28;19915;-24
2022/05/19 16:02:39;;;;;;;;;;;;;;;;;;5040894;28;19927;-25
2022/05/19 16:05:06;;;;;;;;;;;;;;;;;;5042363;28;19994;-25
2022/05/19 16:07:33;;;;;;;;;;;;;;;;;;5060108;28;19913;-25
2022/05/19 16:10:01;;;;;;;;;;;;;;;;;;5059853;28;19979;-25
2022/05/19 16:12:28;;;;;;;;;;;;;;;;;;5059896;28;19913;-25
2022/05/19 16:14:55;;;;;;;;;;;;;;;;;;5059732;28;19913;-25
2022/05/19 16:17:31;;;;;;;;;;;;;;;;;;5059408;28;19909;-24
2022/05/19 16:19:58;;;;;;;;;;;;;;;;;;5059756;28;19928;-25
2022/05/19 16:22:27;;;;;;;;;;;;;;;;;;5059622;28;19948;-25
2022/05/19 16:24:55;;;;;;;;;;;;;;;;;;5042056;28;19923;-25
2022/05/19 16:27:22;;;;;;;;;;;;;;;;;;5059515;28;20319;-25
2022/05/19 16:29:49;;;;;;;;;;;;;;;;;;5038925;28;19921;-25
2022/05/19 16:32:15;;;;;;;;;;;;;;;;;;5038855;28;19909;-25
2022/05/19 16:34:43;;;;;;;;;;;;;;;;;;5039284;28;19920;-25
2022/05/19 16:37:22;;;;;;;;;;;;;;;;;;5039709;28;19909;-24
2022/05/19 16:39:48;;;;;;;;;;;;;;;;;;5036439;28;19913;-25
2022/05/19 16:42:14;;;;;;;;;;;;;;;;;;5036645;28;19920;-26
2022/05/19 16:44:41;;;;;;;;;;;;;;;;;;5036701;28;20410;-26
2022/05/19 16:47:07;;;;;;;;;;;;;;;;;;5036530;28;20000;-26
2022/05/19 16:49:43;;;;;;;;;;;;;;;;;;5036007;28;19959;-25
2022/05/19 16:52:10;;;;;;;;;;;;;;;;;;5037092;28;20293;-26
2022/05/19 17:00:05;;;;;;;;;;;;;;;;;;5036726;28;19952;-25
2022/05/19 17:02:32;;;;;;;;;;;;;;;;;;5036709;28;20016;-26
2022/05/19 17:04:58;;;;;;;;;;;;;;;;;;5036100;28;20002;-26
2022/05/19 17:07:24;;;;;;;;;;;;;;;;;;5036248;28;19948;-26
2022/05/19 17:09:58;;;;;;;;;;;;;;;;;;5037423;28;20004;-25
2022/05/19 17:12:26;;;;;;;;;;;;;;;;;;5040419;28;19976;-25
2022/05/19 17:14:58;;;;;;;;;;;;;;;;;;5038378;28;19948;-25
2022/05/19 17:17:25;;;;;;;;;;;;;;;;;;5037821;28;19955;-25
2022/05/19 17:19:52;;;;;;;;;;;;;;;;;;5037538;28;19956;-25
2022/05/19 17:22:20;;;;;;;;;;;;;;;;;;5038671;28;19960;-25
2022/05/19 17:24:51;;;;;;;;;;;;;;;;;;5038316;28;19917;-26
2022/05/19 17:27:19;;;;;;;;;;;;;;;;;;5038616;28;19909;-26
2022/05/19 17:29:46;;;;;;;;;;;;;;;;;;5037640;28;19925;-24
2022/05/19 17:32:14;;;;;;;;;;;;;;;;;;5038890;28;19921;-24
2022/05/19 17:34:42;;;;;;;;;;;;;;;;;;5038331;28;19913;-24
2022/05/19 17:37:14;;;;;;;;;;;;;;;;;;5037752;28;20014;-24
2022/05/19 17:39:41;;;;;;;;;;;;;;;;;;5039404;28;19913;-24
2022/05/19 17:42:09;;;;;;;;;;;;;;;;;;5037139;28;19920;-24
2022/05/19 17:44:36;;;;;;;;;;;;;;;;;;5038215;28;19920;-24
2022/05/19 17:47:03;;;;;;;;;;;;;;;;;;5036545;28;20259;-24
2022/05/19 17:49:30;;;;;;;;;;;;;;;;;;5037627;28;19917;-24
2022/05/19 17:51:57;;;;;;;;;;;;;;;;;;5036037;28;19913;-24
2022/05/19 17:54:25;;;;;;;;;;;;;;;;;;5036741;28;19932;-24
2022/05/19 17:56:53;;;;;;;;;;;;;;;;;;5037066;28;20292;-24
2022/05/19 17:59:20;;;;;;;;;;;;;;;;;;5037833;28;19913;-24
2022/05/19 18:01:47;;;;;;;;;;;;;;;;;;5038173;28;19928;-24
2022/05/19 18:04:14;;;;;;;;;;;;;;;;;;5037701;28;19952;-24
2022/05/19 18:06:47;;;;;;;;;;;;;;;;;;5037001;28;19921;-24
2022/05/19 18:09:14;;;;;;;;;;;;;;;;;;5036822;28;19910;-24
2022/05/19 18:11:41;;;;;;;;;;;;;;;;;;5038012;28;19992;-24
2022/05/19 18:14:09;;;;;;;;;;;;;;;;;;5037015;28;19913;-24
2022/05/19 18:19:22;;;;;;;;;;;;;;;;;;5037248;28;19971;-24
2022/05/19 18:21:49;;;;;;;;;;;;;;;;;;5036142;28;20022;-24
2022/05/19 18:24:18;;;;;;;;;;;;;;;;;;5036144;28;19917;-24
2022/05/19 18:26:46;;;;;;;;;;;;;;;;;;5035137;28;19916;-24
2022/05/19 18:29:13;;;;;;;;;;;;;;;;;;5044871;28;19921;-24
2022/05/19 18:31:40;;;;;;;;;;;;;;;;;;5056928;28;20366;-24
2022/05/19 18:34:08;;;;;;;;;;;;;;;;;;5057344;28;20361;-24
2022/05/19 18:36:34;;;;;;;;;;;;;;;;;;5056496;28;20046;-24
2022/05/19 18:39:01;;;;;;;;;;;;;;;;;;5056688;28;20340;-24
2022/05/19 18:49:44;;;;;;;;;;;;;;;;;;5059877;28;20050;-24
2022/05/19 18:54:57;;;;;;;;;;;;;;;;;;5060151;28;20313;-24
2022/05/19 19:03:12;;;;;;;;;;;;;;;;;;5058287;28;19987;-24
2022/05/19 19:05:50;;;;;;;;;;;;;;;;;;5061339;28;19912;-25
2022/05/19 19:08:20;;;;;;;;;;;;;;;;;;5040837;28;20104;-24
2022/05/19 19:10:52;;;;;;;;;;;;;;;;;;5056736;28;19913;-24
2022/05/19 19:13:19;;;;;;;;;;;;;;;;;;5057046;28;20260;-25
2022/05/19 19:15:49;;;;;;;;;;;;;;;;;;5057087;28;20331;-26
2022/05/19 19:18:16;;;;;;;;;;;;;;;;;;5039280;28;19913;-25
2022/05/19 19:20:44;;;;;;;;;;;;;;;;;;5057701;28;19914;-25
2022/05/19 19:23:11;;;;;;;;;;;;;;;;;;5057270;28;19921;-25
2022/05/19 19:25:39;;;;;;;;;;;;;;;;;;5039475;28;19928;-25
2022/05/19 19:28:06;;;;;;;;;;;;;;;;;;5039929;28;19921;-25
2022/05/19 19:30:33;;;;;;;;;;;;;;;;;;5035906;28;19973;-25
2022/05/19 19:32:59;;;;;;;;;;;;;;;;;;5035833;28;19917;-25
2022/05/19 19:35:27;;;;;;;;;;;;;;;;;;5037154;28;19920;-25
2022/05/19 19:37:59;;;;;;;;;;;;;;;;;;5043538;28;19909;-25
2022/05/19 19:40:30;;;;;;;;;;;;;;;;;;5039480;28;19916;-25
2022/05/19 19:45:49;;;;;;;;;;;;;;;;;;5042475;28;19924;-25
2022/05/19 19:48:16;;;;;;;;;;;;;;;;;;5040287;28;20275;-25
2022/05/19 19:53:29;;;;;;;;;;;;;;;;;;5040596;28;19970;-25
2022/05/19 19:55:56;;;;;;;;;;;;;;;;;;5038703;28;19947;-25
2022/05/19 19:58:23;;;;;;;;;;;;;;;;;;5039391;28;19916;-25
2022/05/19 20:00:51;;;;;;;;;;;;;;;;;;5039595;28;19913;-25
2022/05/19 20:03:18;;;;;;;;;;;;;;;;;;5039417;28;19960;-25
2022/05/19 20:05:45;;;;;;;;;;;;;;;;;;5039685;28;19932;-25